Airfield :







YOU CAN JOIN US ON...

 
LOGIN :

Register | Disclaimer

   EN    FR    IT 

 









Legend :    VFR   Marginal VFR   IFR   Intensive IFR   Very Intensive IFR
Visi :
Ceiling :
>= 8 km
>= 3000ft
5 to 8 km
1000 to 3000 ft
1500m to 5 km
500 to 1000 ft
800 to 1500m
200 to 500 ft
< 800m
< 200 ft
Symbols :   Thunderstorms  Fog  Heavy snow  Heavy precipitations  Wind > 20 kt






- Airport Elevation : 626 ft


KCAR - Caribou Municipal

CURRENT METAR :
  • 261938Z AUTO 03004KT 2 1/2SM BR OVC004 02/01 A2947 RMK AO2 UPE24B33E36RAB1856E10B24E33 P0001 T00220006

EXPIRED METARs :
  • 261927Z AUTO 03005KT 1 3/4SM -RA BR OVC004 02/01 A2948 RMK AO2 UPE24RAB1856E10B24 P0001 T00220006
  • 261918Z AUTO 04004KT 1 1/2SM UP BR OVC005 02/01 A2948 RMK AO2 RAB1856E10 P0001 T00220006
  • 261854Z AUTO 04004KT 1 1/4SM UP BR OVC005 02/01 A2949 RMK AO2 UPB46 SLP995 P0002 T00220006
  • 261816Z AUTO 05004KT 1 1/4SM BR OVC005 02/01 A2950 RMK AO2 P0001 T00170006
  • 261754Z AUTO 05005KT 1 1/2SM BR OVC007 02/01 A2951 RMK AO2 UPB1658E29 SLP004 P0002 60021 T00170006 10017 20006 57048
  • 261735Z AUTO 04006KT 1 1/2SM BR OVC007 02/01 A2953 RMK AO2 UPB1658E29 P0002 T00170006
  • 261720Z AUTO 04005KT 1 1/4SM UP BR OVC006 02/00 A2954 RMK AO2 UPB1658 P0001 T00170000
  • 261703Z AUTO 04005KT 1 1/4SM UP BR OVC005 02/00 A2956 RMK AO2 UPB1658 P0000 T00170000

TAF KCAR
Valid from the 26 at 18:00 until the 27 at 18:00 UTC


261727Z 2618/2718 08006KT 2SM -RA BR OVC005
FM270000 31003KT 2SM -RASN OVC004
FM270200 28004KT 1SM -SN OVC005
FM270600 24007KT 2SM -SN OVC008
FM271000 26005KT 6SM -SN OVC011



MET'MAP, your aeronautical weather chart ! - Copyright ORBIFLY December 2007 - Disclaimer

ORBIFLY MET'MAP TEAM :

Programming & Development : Alexandra Zaïnal
Concept & original design : Baudouin d'Aumeries
Assistance for programming : Marc-Olivier Méhu
Technical & hardware support : Manuel Goepfert

Contact : metmap@orbifly.com




SOURCES & CREDITS :

   NOAA